Time;durP1;ratioP1;P1;durP2;ratioP2;P2;SDS_P1;SDS_P2;PMS_P1;PMS_P2;Temp;Humidity;BMP_temperature;BMP_pressure;BME280_temperature;BME280_humidity;BME280_pressure;Samples;Min_cycle;Max_cycle;Signal;HPM_P1;HPM_P2
2022/02/10 00:06:56;;;;;;;10.77;5.50;;;8.60;96.70;;;;;;5045007;28;20044;-82
2022/02/10 00:18:03;;;;;;;18.05;6.25;;;8.80;96.70;;;;;;5044283;28;20122;-81
2022/02/10 00:20:42;;;;;;;14.77;6.22;;;8.80;96.70;;;;;;5042939;28;20072;-81
2022/02/10 00:23:31;;;;;;;16.88;6.57;;;8.70;96.70;;;;;;5057369;28;20422;-81
2022/02/10 00:36:41;;;;;;;15.23;6.40;;;8.60;96.70;;;;;;5137655;27;20051;-81
2022/02/10 00:39:34;;;;;;;15.10;5.85;;;8.50;96.70;;;;;;5139609;27;20041;-81
2022/02/10 00:42:04;;;;;;;11.75;5.93;;;8.50;96.70;;;;;;5140636;27;20088;-82
2022/02/10 00:44:33;;;;;;;13.27;5.55;;;8.50;96.70;;;;;;5139520;27;20035;-82
2022/02/10 00:47:01;;;;;;;13.13;5.25;;;8.40;96.70;;;;;;5141766;27;20145;-82
2022/02/10 00:49:29;;;;;;;12.77;6.03;;;8.40;96.70;;;;;;5142939;27;20117;-81
2022/02/10 00:51:57;;;;;;;9.20;4.85;;;8.50;96.70;;;;;;5125101;27;20060;-81
2022/02/10 00:54:27;;;;;;;14.52;5.80;;;8.40;96.70;;;;;;5155927;27;20043;-82
2022/02/10 00:56:58;;;;;;;11.18;5.50;;;8.30;96.70;;;;;;5125782;27;20043;-82
2022/02/10 01:31:56;;;;;;;9.10;4.13;;;8.10;96.70;;;;;;5142592;27;20142;-85
2022/02/10 01:34:25;;;;;;;10.30;4.93;;;8.00;96.70;;;;;;5131254;27;20035;-84
2022/02/10 01:36:53;;;;;;;9.40;3.80;;;8.00;96.70;;;;;;5136704;27;20508;-85
2022/02/10 01:39:25;;;;;;;8.32;5.05;;;8.00;96.70;;;;;;5143344;27;20038;-84
2022/02/10 02:03:15;;;;;;;9.88;4.50;;;8.00;96.70;;;;;;5149289;27;20885;-84
2022/02/10 02:04:11;;;;;;;12.23;4.72;;;7.80;96.70;;;;;;5141641;27;20047;-84
2022/02/10 02:06:44;;;;;;;9.55;4.13;;;7.70;96.70;;;;;;5144482;27;20061;-84
2022/02/10 02:09:15;;;;;;;13.13;5.60;;;7.80;96.70;;;;;;5138383;27;20134;-84
2022/02/10 02:11:45;;;;;;;9.23;4.20;;;7.60;96.70;;;;;;5143096;27;20050;-84
2022/02/10 02:14:17;;;;;;;12.48;4.72;;;7.60;96.70;;;;;;5142962;27;20643;-84
2022/02/10 02:16:46;;;;;;;9.40;4.35;;;7.70;96.70;;;;;;5159418;27;20042;-83
2022/02/10 02:19:15;;;;;;;11.38;4.60;;;7.70;96.70;;;;;;5144671;27;20035;-84
2022/02/10 02:21:45;;;;;;;9.80;4.32;;;7.70;96.70;;;;;;5144168;27;20067;-84
2022/02/10 02:24:20;;;;;;;10.05;4.00;;;7.70;96.70;;;;;;5146031;27;20060;-84
2022/02/10 02:26:50;;;;;;;10.63;4.38;;;7.70;96.70;;;;;;5139403;27;20057;-85
2022/02/10 02:29:33;;;;;;;9.88;3.88;;;7.60;96.70;;;;;;5138634;27;20046;-84
2022/02/10 02:32:08;;;;;;;11.15;4.43;;;7.50;96.70;;;;;;5139102;27;20042;-84
2022/02/10 03:03:56;;;;;;;9.50;3.85;;;7.70;96.70;;;;;;5104618;27;20416;-83
2022/02/10 03:05:31;;;;;;;9.10;3.65;;;7.50;96.70;;;;;;5158470;27;20360;-84
2022/02/10 03:08:01;;;;;;;8.20;3.75;;;7.50;96.70;;;;;;5125796;27;20126;-84
2022/02/10 03:12:59;;;;;;;9.80;3.58;;;7.40;96.70;;;;;;5142921;27;20050;-84
2022/02/10 03:15:49;;;;;;;11.23;3.90;;;7.30;96.70;;;;;;5143334;27;20039;-84
2022/02/10 03:18:35;;;;;;;10.18;3.67;;;7.30;96.70;;;;;;5121570;27;20065;-84
2022/02/10 03:21:38;;;;;;;5.97;2.90;;;7.20;96.70;;;;;;5123432;27;20141;-84
2022/02/10 04:10:40;;;;;;;9.18;3.78;;;6.90;96.70;;;;;;5111661;28;20047;-84
2022/02/10 04:26:29;;;;;;;8.20;3.03;;;6.90;96.70;;;;;;5118325;27;21025;-84
2022/02/10 04:37:45;;;;;;;8.70;3.55;;;6.90;96.70;;;;;;5123679;27;20599;-83
2022/02/10 04:54:03;;;;;;;6.40;2.55;;;6.90;96.70;;;;;;5119424;28;20043;-84
2022/02/10 04:59:23;;;;;;;7.20;3.13;;;6.90;96.70;;;;;;5121337;27;20066;-84
2022/02/10 05:01:56;;;;;;;9.38;2.70;;;6.90;96.70;;;;;;5113411;27;20051;-84
2022/02/10 05:13:54;;;;;;;4.20;2.50;;;7.00;96.70;;;;;;5120941;27;20045;-84
2022/02/10 05:21:23;;;;;;;9.48;3.28;;;7.00;96.70;;;;;;5121486;27;20044;-85
2022/02/10 05:34:57;;;;;;;9.25;3.13;;;6.90;96.70;;;;;;5134548;27;20044;-84
2022/02/10 05:37:30;;;;;;;7.45;2.95;;;6.90;96.70;;;;;;5123473;27;20099;-84
2022/02/10 05:40:05;;;;;;;8.43;3.50;;;6.90;96.70;;;;;;5122460;27;20047;-84
2022/02/10 05:43:17;;;;;;;9.25;3.53;;;6.90;96.70;;;;;;5106233;27;20104;-85
2022/02/10 05:45:39;;;;;;;6.07;2.72;;;6.90;96.70;;;;;;5125404;27;20606;-85
2022/02/10 05:56:11;;;;;;;9.32;3.63;;;6.80;96.70;;;;;;5122249;27;20081;-84
2022/02/10 06:51:20;;;;;;;7.95;3.10;;;6.70;96.70;;;;;;5121708;27;20142;-83
2022/02/10 07:05:20;;;;;;;10.10;3.50;;;6.80;96.70;;;;;;5123778;27;20050;-83
2022/02/10 07:10:35;;;;;;;7.72;2.83;;;6.80;96.70;;;;;;5116927;27;20074;-83
2022/02/10 07:16:08;;;;;;;10.43;3.33;;;6.90;96.70;;;;;;5122970;27;20039;-82
2022/02/10 07:50:00;;;;;;;9.57;4.85;;;7.20;96.70;;;;;;5120153;27;20484;-82
2022/02/10 08:00:58;;;;;;;9.75;4.38;;;7.40;96.70;;;;;;5136227;27;20493;-82
2022/02/10 09:04:15;;;;;;;11.80;4.32;;;8.70;96.70;;;;;;5120592;27;20074;-82
2022/02/10 09:07:05;;;;;;;7.65;4.10;;;8.90;96.70;;;;;;5125002;27;20036;-81
2022/02/10 09:12:48;;;;;;;9.38;4.35;;;9.00;96.70;;;;;;5139340;27;20043;-83
2022/02/10 09:24:09;;;;;;;8.52;3.67;;;9.30;96.70;;;;;;5125406;27;20043;-82
2022/02/10 09:50:49;;;;;;;8.63;2.92;;;10.50;96.70;;;;;;5123082;27;20153;-83
2022/02/10 10:01:34;;;;;;;8.55;3.35;;;10.80;96.70;;;;;;5119984;27;20032;-82
2022/02/10 10:04:22;;;;;;;10.98;3.78;;;10.90;96.70;;;;;;5109454;27;20069;-83
2022/02/10 10:27:13;;;;;;;12.45;4.93;;;11.80;96.70;;;;;;5119274;27;20067;-82
2022/02/10 10:49:42;;;;;;;15.60;5.72;;;11.80;96.70;;;;;;5118878;27;20039;-81
2022/02/10 10:52:25;;;;;;;15.85;6.30;;;11.80;96.70;;;;;;5120637;27;20040;-80
2022/02/10 10:57:33;;;;;;;9.57;4.07;;;11.90;96.70;;;;;;5123637;27;20080;-81
2022/02/10 11:00:26;;;;;;;9.63;3.97;;;12.20;96.70;;;;;;5124957;27;20050;-80
2022/02/10 11:38:22;;;;;;;5.43;1.27;;;14.40;96.70;;;;;;5122422;27;20069;-82
2022/02/10 13:26:41;;;;;;;3.78;1.10;;;16.10;96.70;;;;;;5125084;27;20567;-83
2022/02/10 14:18:02;;;;;;;5.15;0.80;;;15.90;96.70;;;;;;5133985;27;20381;-82
2022/02/10 14:25:49;;;;;;;8.32;2.03;;;16.20;96.70;;;;;;5119581;27;20047;-83
2022/02/10 14:28:21;;;;;;;5.60;1.52;;;16.10;96.70;;;;;;5122816;27;20047;-83
2022/02/10 14:30:51;;;;;;;4.72;0.98;;;16.10;96.70;;;;;;5121507;27;20572;-83
2022/02/10 14:33:34;;;;;;;9.13;2.03;;;16.00;96.70;;;;;;5106510;27;20039;-83
2022/02/10 14:36:25;;;;;;;6.07;1.48;;;16.00;96.70;;;;;;5121985;27;20538;-83
2022/02/10 14:39:13;;;;;;;5.13;1.65;;;16.00;96.70;;;;;;5120581;27;20036;-83
2022/02/10 15:18:15;;;;;;;3.28;1.10;;;14.70;96.70;;;;;;5118859;27;20051;-83
2022/02/10 15:29:34;;;;;;;5.57;1.45;;;14.70;96.70;;;;;;5133144;27;20043;-83
2022/02/10 15:51:31;;;;;;;6.63;2.57;;;16.00;96.70;;;;;;5121387;27;20366;-82
2022/02/10 15:56:58;;;;;;;8.55;2.15;;;16.20;96.70;;;;;;5115731;27;20572;-82
2022/02/10 16:18:42;;;;;;;5.78;1.65;;;14.40;96.70;;;;;;5119312;27;20043;-82
2022/02/10 16:21:11;;;;;;;5.88;2.25;;;14.30;96.70;;;;;;5134706;27;20985;-82
2022/02/10 16:23:40;;;;;;;6.97;1.70;;;14.20;96.70;;;;;;5118080;27;20051;-83
2022/02/10 16:26:15;;;;;;;6.35;2.00;;;14.00;96.70;;;;;;5119710;27;20289;-82
2022/02/10 16:28:44;;;;;;;6.55;1.92;;;13.90;96.70;;;;;;5117802;27;20039;-83
2022/02/10 16:31:14;;;;;;;5.43;1.67;;;13.70;96.70;;;;;;5105456;28;20035;-83
2022/02/10 16:33:51;;;;;;;10.52;2.80;;;13.60;96.70;;;;;;5123166;27;20118;-82
2022/02/10 16:36:20;;;;;;;7.10;2.90;;;13.50;96.70;;;;;;5102216;28;20058;-84
2022/02/10 16:38:48;;;;;;;5.50;2.33;;;13.40;96.70;;;;;;5113368;28;20032;-84
2022/02/10 16:41:18;;;;;;;7.50;3.13;;;13.30;96.70;;;;;;5118621;27;20139;-84
2022/02/10 16:43:46;;;;;;;14.07;7.20;;;13.20;96.70;;;;;;5117780;27;20038;-85
2022/02/10 16:46:19;;;;;;;16.92;7.72;;;13.10;96.70;;;;;;5120812;28;20080;-85
2022/02/10 16:48:47;;;;;;;14.85;6.15;;;12.90;96.70;;;;;;5119439;27;20144;-85
2022/02/10 16:51:25;;;;;;;10.80;5.93;;;12.80;96.70;;;;;;5118457;27;20034;-84
2022/02/10 16:54:06;;;;;;;15.43;8.30;;;12.80;96.70;;;;;;5102894;27;20293;-84
2022/02/10 16:57:00;;;;;;;22.08;11.40;;;12.70;96.70;;;;;;5107831;27;20048;-84
2022/02/10 16:59:46;;;;;;;22.15;9.45;;;12.60;96.70;;;;;;5122571;27;20049;-84
2022/02/10 17:19:08;;;;;;;11.55;5.07;;;12.30;96.70;;;;;;5126747;27;20032;-83
2022/02/10 17:52:17;;;;;;;16.58;7.05;;;12.50;96.70;;;;;;5135653;27;20047;-83
2022/02/10 17:54:47;;;;;;;15.50;7.68;;;12.40;96.70;;;;;;5097219;28;20734;-83
2022/02/10 17:57:17;;;;;;;18.38;11.32;;;12.30;96.70;;;;;;5079997;28;20057;-83
2022/02/10 17:59:45;;;;;;;16.45;10.20;;;12.10;96.70;;;;;;5065003;28;20051;-83
2022/02/10 18:02:15;;;;;;;23.20;13.50;;;12.10;96.70;;;;;;5082423;28;20697;-83
2022/02/10 18:04:43;;;;;;;29.15;18.05;;;12.20;96.70;;;;;;5067642;28;20432;-83
2022/02/10 18:07:13;;;;;;;27.05;13.02;;;12.10;96.70;;;;;;5079030;28;20552;-83
2022/02/10 18:10:04;;;;;;;21.67;12.77;;;12.00;96.70;;;;;;5066875;28;20477;-83
2022/02/10 18:15:37;;;;;;;19.02;11.32;;;11.80;96.70;;;;;;5061136;28;20059;-83
2022/02/10 18:18:18;;;;;;;16.38;10.48;;;11.60;96.70;;;;;;5067402;28;20050;-83
2022/02/10 18:20:54;;;;;;;18.23;10.52;;;11.50;96.70;;;;;;5098859;28;20214;-83
2022/02/10 18:23:32;;;;;;;17.67;11.15;;;11.40;96.70;;;;;;5068532;28;20043;-83
2022/02/10 18:26:13;;;;;;;18.60;11.32;;;11.30;96.70;;;;;;5098200;27;20048;-83
2022/02/10 19:01:53;;;;;;;21.25;14.40;;;11.30;96.70;;;;;;5120401;27;20239;-82
2022/02/10 19:07:16;;;;;;;23.13;15.40;;;11.40;96.70;;;;;;5115139;27;20109;-82
2022/02/10 19:09:47;;;;;;;;;;;11.40;96.70;;;;;;5136359;27;20627;-83
2022/02/10 19:12:27;;;;;;;20.42;13.20;;;11.40;96.70;;;;;;5118377;27;19929;-82
2022/02/10 19:15:06;;;;;;;22.75;13.68;;;11.30;96.70;;;;;;5121497;27;20046;-82
2022/02/10 19:17:36;;;;;;;23.63;14.98;;;11.30;96.70;;;;;;5119261;27;20051;-82
2022/02/10 19:20:05;;;;;;;25.98;14.57;;;11.30;96.70;;;;;;5104909;27;20134;-84
2022/02/10 19:22:35;;;;;;;27.30;14.07;;;11.10;96.70;;;;;;5121082;27;20155;-85
2022/02/10 19:25:05;;;;;;;25.33;14.82;;;11.20;96.70;;;;;;5123005;27;20233;-84
2022/02/10 19:27:35;;;;;;;25.15;14.50;;;11.30;96.70;;;;;;5119562;27;20531;-82
2022/02/10 19:30:06;;;;;;;22.88;14.52;;;11.20;96.70;;;;;;5132051;27;20039;-83
2022/02/10 19:32:35;;;;;;;25.05;15.85;;;11.20;96.70;;;;;;5122505;27;20086;-83
2022/02/10 19:35:05;;;;;;;24.25;15.30;;;11.30;96.70;;;;;;5121191;27;20027;-82
2022/02/10 19:37:34;;;;;;;23.65;15.82;;;11.10;96.70;;;;;;5120652;27;20039;-82
2022/02/10 19:40:04;;;;;;;25.10;15.32;;;11.10;96.70;;;;;;5119659;27;20079;-83
2022/02/10 19:42:35;;;;;;;29.55;18.08;;;11.10;96.70;;;;;;5119945;27;20553;-83
2022/02/10 19:45:06;;;;;;;28.35;18.50;;;10.70;96.70;;;;;;5116992;27;20077;-83
2022/02/10 19:47:38;;;;;;;37.13;23.77;;;10.60;96.70;;;;;;5133806;27;20062;-83
2022/02/10 19:50:14;;;;;;;34.03;21.80;;;10.50;96.70;;;;;;5138481;27;20047;-84
2022/02/10 19:52:48;;;;;;;31.15;20.42;;;10.40;96.70;;;;;;5112742;27;20131;-84
2022/02/10 19:55:20;;;;;;;33.95;20.42;;;10.30;96.70;;;;;;5101920;27;20035;-83
2022/02/10 19:57:51;;;;;;;32.25;20.15;;;10.40;96.70;;;;;;5104328;27;20047;-85
2022/02/10 20:00:25;;;;;;;31.25;19.70;;;10.50;96.70;;;;;;5114014;27;20047;-85
2022/02/10 20:02:54;;;;;;;30.95;19.15;;;10.40;96.70;;;;;;5115814;27;20292;-84
2022/02/10 20:05:26;;;;;;;27.13;16.02;;;10.40;96.70;;;;;;5098199;27;20101;-85
2022/02/10 20:07:57;;;;;;;26.42;17.60;;;10.30;96.70;;;;;;5119986;27;20125;-84
2022/02/10 20:10:26;;;;;;;29.27;18.00;;;10.30;96.70;;;;;;5122570;27;20096;-83
2022/02/10 20:12:54;;;;;;;24.92;14.40;;;10.30;96.70;;;;;;5114958;27;20065;-87
2022/02/10 20:15:23;;;;;;;21.92;14.63;;;10.20;96.70;;;;;;5103429;27;20358;-84
2022/02/10 20:17:55;;;;;;;21.13;14.02;;;10.20;96.70;;;;;;5118574;27;20135;-86
2022/02/10 20:20:24;;;;;;;23.40;12.85;;;10.10;96.70;;;;;;5109317;27;20046;-85
2022/02/10 20:22:53;;;;;;;20.25;11.18;;;10.10;96.70;;;;;;5119208;27;20047;-87
2022/02/10 20:25:40;;;;;;;17.58;12.10;;;10.10;96.70;;;;;;5137701;27;20038;-86
2022/02/10 20:28:09;;;;;;;18.90;11.93;;;10.10;96.70;;;;;;5104699;27;20050;-86
2022/02/10 20:30:40;;;;;;;21.58;12.02;;;10.10;96.70;;;;;;5126143;27;20135;-86
2022/02/10 20:33:10;;;;;;;18.90;11.57;;;10.00;96.70;;;;;;5143114;27;20043;-84
2022/02/10 20:35:44;;;;;;;19.10;12.25;;;10.00;96.70;;;;;;5108755;27;20051;-83
2022/02/10 20:38:16;;;;;;;19.05;11.93;;;9.90;96.70;;;;;;5105510;27;20419;-83
2022/02/10 20:40:54;;;;;;;19.30;11.32;;;9.90;96.70;;;;;;5121410;27;20749;-85
2022/02/10 20:43:24;;;;;;;19.30;11.20;;;9.90;96.70;;;;;;5112206;27;20261;-85
2022/02/10 20:45:57;;;;;;;16.70;11.05;;;9.90;96.70;;;;;;5136764;27;20517;-83
2022/02/10 20:48:42;;;;;;;17.27;11.23;;;9.90;96.70;;;;;;5082996;28;20079;-83
2022/02/10 20:51:13;;;;;;;17.10;10.93;;;9.80;96.70;;;;;;5084467;28;20052;-84
2022/02/10 20:53:46;;;;;;;17.77;10.35;;;9.90;96.70;;;;;;5078909;28;20051;-84
2022/02/10 20:56:19;;;;;;;17.77;10.23;;;9.70;96.70;;;;;;5086110;28;20117;-82
2022/02/10 20:58:56;;;;;;;17.67;11.43;;;9.70;96.70;;;;;;5088402;27;20035;-83
2022/02/10 21:01:26;;;;;;;18.35;10.45;;;9.80;96.70;;;;;;5089504;28;20702;-84
2022/02/10 21:03:58;;;;;;;15.13;10.02;;;9.70;96.70;;;;;;5071328;28;20039;-82
2022/02/10 21:09:08;;;;;;;15.40;10.50;;;9.80;96.70;;;;;;5096389;27;20578;-83
2022/02/10 21:11:38;;;;;;;19.60;11.90;;;9.80;96.70;;;;;;5081694;28;20577;-84
2022/02/10 21:14:15;;;;;;;16.70;11.18;;;9.80;96.70;;;;;;5084522;28;20055;-83
2022/02/10 21:16:51;;;;;;;20.35;13.23;;;9.70;96.70;;;;;;5095473;27;20901;-83
2022/02/10 21:19:23;;;;;;;24.25;13.82;;;9.70;96.70;;;;;;5101514;27;20070;-84
2022/02/10 21:21:51;;;;;;;23.33;15.27;;;9.70;96.70;;;;;;5119227;27;20291;-84
2022/02/10 21:24:26;;;;;;;26.98;16.63;;;9.70;96.70;;;;;;5111079;27;20044;-84
2022/02/10 21:29:43;;;;;;;16.83;10.95;;;9.70;96.70;;;;;;5126115;27;20047;-84
2022/02/10 21:32:11;;;;;;;16.20;9.25;;;9.60;96.70;;;;;;5125114;27;20534;-89
2022/02/10 21:35:04;;;;;;;13.98;8.43;;;9.60;96.70;;;;;;5125680;27;20088;-83
2022/02/10 21:37:42;;;;;;;12.55;7.78;;;9.50;96.70;;;;;;5104769;27;20038;-86
2022/02/10 21:44:17;;;;;;;18.48;11.30;;;9.50;96.70;;;;;;5123298;27;20043;-86
2022/02/10 21:54:39;;;;;;;18.60;10.43;;;9.40;96.70;;;;;;5121262;27;20047;-84
2022/02/10 22:03:25;;;;;;;10.55;7.05;;;9.10;96.70;;;;;;5121652;27;20086;-84
2022/02/10 22:21:13;;;;;;;5.38;4.00;;;9.00;96.70;;;;;;5107100;27;20088;-82
2022/02/10 22:23:45;;;;;;;7.53;4.57;;;9.10;96.70;;;;;;5136596;27;20389;-83
2022/02/10 22:26:20;;;;;;;9.27;5.07;;;9.00;96.70;;;;;;5097614;27;20588;-82
2022/02/10 22:28:59;;;;;;;11.30;6.68;;;9.00;96.70;;;;;;5119723;27;20408;-81
2022/02/10 22:34:11;;;;;;;12.90;6.68;;;8.90;96.70;;;;;;5121627;27;20039;-82
2022/02/10 22:36:42;;;;;;;11.38;6.75;;;8.80;96.70;;;;;;5120148;27;20404;-83
2022/02/10 22:39:12;;;;;;;9.27;6.03;;;8.80;96.70;;;;;;5118578;27;20042;-82
2022/02/10 22:41:41;;;;;;;9.77;6.43;;;8.80;96.70;;;;;;5102738;27;20043;-82
2022/02/10 22:44:09;;;;;;;10.88;6.63;;;8.80;96.70;;;;;;5117637;27;20043;-82
2022/02/10 22:46:39;;;;;;;13.38;6.65;;;8.70;96.70;;;;;;5121551;27;20039;-82
2022/02/10 22:49:07;;;;;;;12.38;6.50;;;8.80;96.70;;;;;;5092288;27;20048;-82
2022/02/10 22:51:36;;;;;;;10.23;5.95;;;8.70;96.70;;;;;;5078228;28;20035;-83
2022/02/10 22:54:04;;;;;;;10.63;6.65;;;8.80;96.70;;;;;;5082193;28;20541;-83
2022/02/10 22:56:33;;;;;;;9.05;6.38;;;8.80;96.70;;;;;;5078504;28;20039;-83
2022/02/10 22:59:03;;;;;;;9.65;6.20;;;8.60;96.70;;;;;;5061850;28;20392;-83
2022/02/10 23:01:32;;;;;;;12.75;7.28;;;8.60;96.70;;;;;;5081984;28;20048;-83
2022/02/10 23:04:02;;;;;;;16.45;6.88;;;8.60;96.70;;;;;;5081126;28;20032;-83
2022/02/10 23:06:30;;;;;;;10.90;6.32;;;8.50;96.70;;;;;;5080896;28;20044;-82
2022/02/10 23:09:00;;;;;;;8.80;5.75;;;8.60;96.70;;;;;;5079845;28;20162;-82
2022/02/10 23:11:30;;;;;;;8.52;5.80;;;8.60;96.70;;;;;;5080828;28;20048;-82
2022/02/10 23:13:59;;;;;;;9.65;5.03;;;8.50;96.70;;;;;;5081039;28;20580;-82
2022/02/10 23:16:28;;;;;;;10.25;4.88;;;8.60;96.70;;;;;;5078514;28;20055;-82
2022/02/10 23:18:56;;;;;;;9.82;5.10;;;8.60;96.70;;;;;;5084262;28;20047;-83
2022/02/10 23:21:27;;;;;;;11.20;4.57;;;8.50;96.70;;;;;;5080635;28;20094;-83
2022/02/10 23:23:55;;;;;;;8.68;5.25;;;8.60;96.70;;;;;;5079311;28;20040;-83
2022/02/10 23:26:25;;;;;;;9.25;5.05;;;8.60;96.70;;;;;;5065402;28;20040;-83
2022/02/10 23:28:56;;;;;;;10.73;6.10;;;8.60;96.70;;;;;;5080753;28;20115;-83
2022/02/10 23:31:26;;;;;;;8.63;5.78;;;8.60;96.70;;;;;;5081792;28;20055;-82
2022/02/10 23:33:58;;;;;;;10.20;5.53;;;8.50;96.70;;;;;;5078417;28;20039;-83
2022/02/10 23:36:47;;;;;;;9.13;5.30;;;8.50;96.70;;;;;;5077094;28;20402;-83
2022/02/10 23:39:41;;;;;;;9.30;6.00;;;8.40;96.70;;;;;;5062709;28;20485;-82
2022/02/10 23:42:17;;;;;;;12.00;6.30;;;8.30;96.70;;;;;;5079226;28;20036;-82
2022/02/10 23:44:48;;;;;;;11.57;6.55;;;8.30;96.70;;;;;;5078480;28;20040;-82
2022/02/10 23:47:20;;;;;;;12.18;6.95;;;8.30;96.70;;;;;;5090817;27;20452;-82
2022/02/10 23:49:51;;;;;;;16.42;6.50;;;8.20;96.70;;;;;;5121375;27;20099;-82
2022/02/10 23:52:23;;;;;;;10.95;6.25;;;8.20;96.70;;;;;;5120232;27;20213;-83
2022/02/10 23:54:57;;;;;;;11.60;6.50;;;8.30;96.70;;;;;;5105229;27;20048;-82
2022/02/10 23:57:55;;;;;;;12.20;6.40;;;8.30;96.70;;;;;;5113222;27;20047;-82
